createdAt,value
2023-02-07T00:03:13.984Z,99613.7
2023-02-07T00:08:50.671Z,99617.6
2023-02-07T00:14:35.685Z,99613.5
2023-02-07T00:20:10.822Z,99607.9
2023-02-07T00:25:45.687Z,99596.2
2023-02-07T00:31:21.882Z,99587.3
2023-02-07T00:36:58.450Z,99578.6
2023-02-07T00:42:33.616Z,99565.3
2023-02-07T00:48:09.421Z,99556.2
2023-02-07T00:53:44.735Z,99543.6
2023-02-07T00:59:20.151Z,99535.9
2023-02-07T01:04:55.927Z,99528.5
2023-02-07T01:10:52.216Z,99529.4
2023-02-07T01:16:27.651Z,99527.1
2023-02-07T01:22:08.969Z,99513.1
2023-02-07T01:27:43.886Z,99503.8
2023-02-07T01:33:19.127Z,99495.3
2023-02-07T01:39:05.099Z,99502.4
2023-02-07T01:44:40.424Z,99502.6
2023-02-07T01:50:15.335Z,99504
2023-02-07T01:55:52.094Z,99513.8
2023-02-07T02:01:34.176Z,99511.4
2023-02-07T02:07:09.696Z,99518.4
2023-02-07T02:12:45.088Z,99528.9
2023-02-07T02:18:29.430Z,99539
2023-02-07T02:24:05.507Z,99534.4
2023-02-07T02:29:45.351Z,99524.8
2023-02-07T02:35:26.580Z,99517.1
2023-02-07T02:41:04.052Z,99514.2
2023-02-07T02:46:53.867Z,99503.1
2023-02-07T02:52:51.558Z,99497.7
2023-02-07T02:58:27.315Z,99499.6
2023-02-07T03:04:26.368Z,99479.8
2023-02-07T03:10:03.590Z,99471.3
2023-02-07T03:15:39.730Z,99449.6
2023-02-07T03:21:16.261Z,99429.9
2023-02-07T03:26:55.520Z,99401.7
2023-02-07T03:32:31.166Z,99392.2
2023-02-07T03:38:19.371Z,99373.9
2023-02-07T03:43:58.507Z,99343.4
2023-02-07T03:49:39.483Z,99345.1
2023-02-07T03:55:15.318Z,99384.4
2023-02-07T04:01:30.394Z,99398.8
2023-02-07T04:07:26.750Z,99378.6
2023-02-07T04:13:05.297Z,99380.6
2023-02-07T04:18:41.471Z,99396
2023-02-07T04:24:23.578Z,99399.6
2023-02-07T04:30:03.126Z,99411.2
2023-02-07T04:35:52.188Z,99415
2023-02-07T04:41:57.648Z,99412
2023-02-07T04:48:03.396Z,99412.8
2023-02-07T04:53:38.335Z,99408.1
2023-02-07T04:59:51.426Z,99404.4
2023-02-07T05:05:27.096Z,99405.8
2023-02-07T05:11:08.053Z,99392.4
2023-02-07T05:16:43.932Z,99386
2023-02-07T05:22:23.755Z,99382.1
2023-02-07T05:28:08.950Z,99379.1
2023-02-07T05:33:44.847Z,99371.9
2023-02-07T05:39:19.851Z,99362
2023-02-07T05:44:55.316Z,99351.2
2023-02-07T05:50:30.624Z,99339.6
2023-02-07T05:56:05.955Z,99331.8
2023-02-07T06:02:02.113Z,99329.4
2023-02-07T06:07:52.694Z,99315.4
2023-02-07T06:13:28.190Z,99314.4
2023-02-07T06:19:03.731Z,99313.6
2023-02-07T06:24:53.045Z,99313.4
2023-02-07T06:30:36.531Z,99316.7
2023-02-07T06:36:11.480Z,99322.7
2023-02-07T06:41:49.429Z,99329.3
2023-02-07T06:47:49.409Z,99325.8
2023-02-07T06:53:22.137Z,99329.7
2023-02-07T06:58:59.651Z,99317.7
2023-02-07T07:04:36.474Z,99321.9
2023-02-07T07:10:22.998Z,99325.1
2023-02-07T07:15:58.954Z,99332.6
2023-02-07T07:21:35.162Z,99331.2
2023-02-07T07:27:37.863Z,99336.7
2023-02-07T07:33:54.266Z,99340.6
2023-02-07T07:39:29.145Z,99333.5
2023-02-07T07:45:07.350Z,99328.4
2023-02-07T07:50:45.578Z,99323.4
2023-02-07T07:56:28.877Z,99319.2
2023-02-07T08:02:25.102Z,99321.2
2023-02-07T08:08:09.449Z,99321.9
2023-02-07T08:13:46.829Z,99306.8
2023-02-07T08:19:25.208Z,99302.5
2023-02-07T08:25:00.967Z,99302.3
2023-02-07T08:30:38.541Z,99306.9
2023-02-07T08:36:15.414Z,99294.4
2023-02-07T08:41:50.196Z,99297.4
2023-02-07T08:47:47.539Z,99306
2023-02-07T08:53:21.285Z,99310.3
2023-02-07T08:58:57.870Z,99311.7
2023-02-07T09:04:33.391Z,99318.8
2023-02-07T09:10:08.504Z,99327
2023-02-07T09:15:43.397Z,99328.5
2023-02-07T09:21:30.732Z,99322.8
2023-02-07T09:27:11.689Z,99316.3
2023-02-07T09:32:47.936Z,99316.9
2023-02-07T09:38:23.156Z,99313.8
2023-02-07T09:43:59.899Z,99316
2023-02-07T09:49:58.356Z,99315
2023-02-07T09:55:31.834Z,99319.9
2023-02-07T10:01:06.866Z,99323.6
2023-02-07T10:06:42.766Z,99332.5
2023-02-07T10:12:18.316Z,99324.8
2023-02-07T10:17:53.494Z,99328.3
2023-02-07T10:23:47.020Z,99331.4
2023-02-07T10:29:22.598Z,99337.9
2023-02-07T10:35:13.712Z,99341.6
2023-02-07T10:41:00.752Z,99346.3
2023-02-07T10:47:19.379Z,99356.6
2023-02-07T10:52:53.258Z,99351.2
2023-02-07T10:58:51.362Z,99353.9
2023-02-07T11:04:26.373Z,99355
2023-02-07T11:10:01.154Z,99356.9
2023-02-07T11:15:37.482Z,99350.5
2023-02-07T11:21:14.874Z,99347
2023-02-07T11:26:50.253Z,99347.9
2023-02-07T11:32:27.558Z,99343.2
2023-02-07T11:38:10.784Z,99346.7
2023-02-07T11:43:59.320Z,99347.3
2023-02-07T11:49:44.844Z,99350.9
2023-02-07T11:55:24.168Z,99350.3
2023-02-07T12:01:08.717Z,99349.7
2023-02-07T12:06:43.622Z,99343.7
2023-02-07T12:12:23.075Z,99341.3
2023-02-07T12:17:58.876Z,99334.9
2023-02-07T12:23:44.016Z,99331.8
2023-02-07T12:29:19.807Z,99329.3
2023-02-07T12:34:55.099Z,99327.4
2023-02-07T12:40:30.015Z,99323.5
2023-02-07T12:46:05.941Z,99323.6
2023-02-07T12:51:44.749Z,99327
2023-02-07T12:57:21.428Z,99323.2
2023-02-07T13:02:57.533Z,99312.1
2023-02-07T13:08:32.980Z,99307.9
2023-02-07T13:14:09.364Z,99309.7
2023-02-07T13:19:45.764Z,99304.7
2023-02-07T13:25:20.865Z,99302.7
2023-02-07T13:30:56.081Z,99295
2023-02-07T13:36:39.775Z,99300.8
2023-02-07T13:42:15.297Z,99300
2023-02-07T13:47:50.659Z,99301.9
2023-02-07T13:53:25.947Z,99305.1
2023-02-07T13:59:00.964Z,99300.7
2023-02-07T14:04:37.091Z,99298.7
2023-02-07T14:10:12.666Z,99292.7
2023-02-07T14:15:48.066Z,99305.2
2023-02-07T14:21:24.069Z,99310.3
2023-02-07T14:26:59.844Z,99316.5
2023-02-07T14:32:35.610Z,99316.7
2023-02-07T14:38:10.446Z,99321.8
2023-02-07T14:43:45.793Z,99318.9
2023-02-07T14:49:34.772Z,99321.4
2023-02-07T14:55:10.202Z,99321.7
2023-02-07T15:00:46.028Z,99323.6
2023-02-07T15:06:33.433Z,99314.9
2023-02-07T15:12:28.065Z,99324.7
2023-02-07T15:18:04.182Z,99336.8
2023-02-07T15:23:39.885Z,99338.7
2023-02-07T15:29:16.817Z,99336.5
2023-02-07T15:35:01.699Z,99337.5
2023-02-07T15:40:36.981Z,99332.7
2023-02-07T15:46:13.684Z,99340.5
2023-02-07T15:51:50.383Z,99331
2023-02-07T15:57:25.430Z,99333.6
2023-02-07T16:03:01.724Z,99339
2023-02-07T16:08:38.788Z,99344
2023-02-07T16:14:17.928Z,99350.5
2023-02-07T16:19:53.088Z,99356.4
2023-02-07T16:25:28.715Z,99361.9
2023-02-07T16:31:04.208Z,99359.2
2023-02-07T16:36:40.045Z,99358.5
2023-02-07T16:42:17.760Z,99363.7
2023-02-07T16:47:56.889Z,99361.2
2023-02-07T16:53:33.976Z,99367.9
2023-02-07T16:59:12.309Z,99376.8
2023-02-07T17:04:47.739Z,99386
2023-02-07T17:10:22.649Z,99393.1
2023-02-07T17:15:58.392Z,99397.8
2023-02-07T17:21:33.504Z,99409.2
2023-02-07T17:27:08.924Z,99419.5
2023-02-07T17:32:44.408Z,99426.4
2023-02-07T17:38:20.724Z,99435.9
2023-02-07T17:43:55.691Z,99434
2023-02-07T17:49:31.205Z,99447.8
2023-02-07T17:55:06.327Z,99461.1
2023-02-07T18:00:43.570Z,99472.8
2023-02-07T18:06:19.412Z,99488.9
2023-02-07T18:12:05.300Z,99490.6
2023-02-07T18:17:40.115Z,99486.8
2023-02-07T18:23:16.776Z,99496
2023-02-07T18:28:56.589Z,99498.8
2023-02-07T18:34:33.208Z,99501.7
2023-02-07T18:40:08.507Z,99513
2023-02-07T18:45:53.199Z,99516.4
2023-02-07T18:51:29.114Z,99512.7
2023-02-07T18:57:05.978Z,99519.6
2023-02-07T19:02:41.455Z,99538.4
2023-02-07T19:08:18.621Z,99538.9
2023-02-07T19:13:54.134Z,99547.8
2023-02-07T19:19:29.342Z,99546.8
2023-02-07T19:25:04.351Z,99549
2023-02-07T19:30:41.582Z,99552.5
2023-02-07T19:36:18.261Z,99557.1
2023-02-07T19:41:53.632Z,99560.6
2023-02-07T19:47:50.911Z,99562.9
2023-02-07T19:53:23.626Z,99565.1
2023-02-07T19:58:59.834Z,99575.5
2023-02-07T20:04:35.383Z,99593.4
2023-02-07T20:10:10.019Z,99592.3
2023-02-07T20:15:45.972Z,99590.4
2023-02-07T20:21:22.507Z,99593.8
2023-02-07T20:26:57.896Z,99599
2023-02-07T20:32:34.667Z,99614
2023-02-07T20:38:10.015Z,99605.8
2023-02-07T20:43:45.420Z,99610.1
2023-02-07T20:49:42.619Z,99618.9
2023-02-07T20:55:15.655Z,99627.1
2023-02-07T21:00:50.770Z,99628.6
2023-02-07T21:06:27.180Z,99629.6
2023-02-07T21:12:03.529Z,99627.6
2023-02-07T21:17:38.861Z,99623.5
2023-02-07T21:23:14.257Z,99628.9
2023-02-07T21:28:49.534Z,99633.5
2023-02-07T21:34:26.053Z,99642
2023-02-07T21:40:01.027Z,99650
2023-02-07T21:45:37.077Z,99649.9
2023-02-07T21:51:12.477Z,99667.1
2023-02-07T21:56:47.734Z,99662
2023-02-07T22:02:24.064Z,99664.8
2023-02-07T22:08:04.384Z,99663.2
2023-02-07T22:13:39.361Z,99672.9
2023-02-07T22:19:15.471Z,99671.3
2023-02-07T22:24:50.605Z,99674.8
2023-02-07T22:30:25.554Z,99678.4
2023-02-07T22:36:00.838Z,99669.8
2023-02-07T22:41:35.971Z,99664
2023-02-07T22:47:34.295Z,99663.6
2023-02-07T22:53:08.224Z,99668.7
2023-02-07T22:58:43.350Z,99668.5
2023-02-07T23:04:18.717Z,99683.7
2023-02-07T23:09:57.690Z,99689.5
2023-02-07T23:15:32.891Z,99693.1
2023-02-07T23:21:08.311Z,99691.5
2023-02-07T23:26:44.133Z,99687.8
2023-02-07T23:32:19.352Z,99684.6
2023-02-07T23:37:54.578Z,99688
2023-02-07T23:43:29.889Z,99682.2
2023-02-07T23:49:27.010Z,99679.5
2023-02-07T23:55:00.882Z,99671.5
